Time;durP1;ratioP1;P1;durP2;ratioP2;P2;SDS_P1;SDS_P2;PMS_P1;PMS_P2;Temp;Humidity;BMP_temperature;BMP_pressure;BME280_temperature;BME280_humidity;BME280_pressure;Samples;Min_cycle;Max_cycle;Signal;HPM_P1;HPM_P2
2021/06/11 00:02:26;;;;;;;6.90;3.65;;;;;;;16.72;90.76;101658.91;6251241;28;20127;-76
2021/06/11 00:05:27;;;;;;;7.20;3.55;;;;;;;16.66;92.69;101651.28;6250897;28;20493;-76
2021/06/11 00:08:29;;;;;;;6.70;3.58;;;;;;;16.65;92.72;101656.72;6250893;28;20057;-78
2021/06/11 00:11:30;;;;;;;7.93;4.15;;;;;;;16.55;92.75;101660.91;6250537;28;20089;-78
2021/06/11 00:14:31;;;;;;;7.75;4.32;;;;;;;16.56;92.91;101660.81;6250792;28;20128;-78
2021/06/11 00:17:34;;;;;;;5.38;3.85;;;;;;;16.57;92.58;101659.84;6250126;28;20052;-79
2021/06/11 00:20:34;;;;;;;5.88;3.90;;;;;;;16.55;92.29;101661.75;6250247;28;20049;-79
2021/06/11 00:23:35;;;;;;;9.77;4.05;;;;;;;16.57;92.13;101659.00;6250443;28;20061;-79
2021/06/11 00:26:36;;;;;;;10.95;4.25;;;;;;;16.56;93.09;101658.16;6250101;28;20053;-78
2021/06/11 00:29:37;;;;;;;8.07;4.03;;;;;;;16.45;93.33;101658.84;6250257;28;20099;-77
2021/06/11 00:32:40;;;;;;;7.30;4.20;;;;;;;16.35;93.41;101665.69;6249950;28;20520;-78
2021/06/11 00:35:40;;;;;;;10.13;4.60;;;;;;;16.34;94.38;101661.31;6250044;28;20045;-77
2021/06/11 00:38:42;;;;;;;6.45;4.43;;;;;;;16.27;93.99;101657.34;6250013;28;20057;-78
2021/06/11 00:41:42;;;;;;;5.97;4.68;;;;;;;16.20;93.80;101661.31;6250215;28;20682;-78
2021/06/11 00:44:43;;;;;;;11.88;4.68;;;;;;;16.16;93.28;101652.69;6249822;28;20140;-78
2021/06/11 00:47:46;;;;;;;6.53;4.93;;;;;;;16.11;93.86;101653.94;6249931;28;20072;-77
2021/06/11 00:50:47;;;;;;;6.07;4.63;;;;;;;16.10;93.42;101653.09;6250275;28;20050;-78
2021/06/11 00:53:48;;;;;;;8.20;4.55;;;;;;;16.07;93.63;101655.06;6249669;28;20531;-76
2021/06/11 00:56:49;;;;;;;9.73;4.88;;;;;;;16.02;93.81;101655.34;6249211;28;20500;-78
2021/06/11 00:59:50;;;;;;;5.93;4.63;;;;;;;15.99;93.77;101660.88;6249558;28;20060;-78
2021/06/11 01:02:52;;;;;;;5.97;4.43;;;;;;;15.99;93.56;101655.56;6249139;28;20103;-78
2021/06/11 01:05:53;;;;;;;7.70;4.40;;;;;;;15.94;92.67;101657.63;6249027;28;20091;-77
2021/06/11 01:08:55;;;;;;;7.72;4.45;;;;;;;15.87;92.83;101659.81;6249993;28;20087;-76
2021/06/11 01:11:57;;;;;;;5.65;4.68;;;;;;;15.86;93.80;101651.97;6249263;28;20075;-76
2021/06/11 01:14:59;;;;;;;5.78;4.22;;;;;;;15.78;93.71;101649.75;6249183;28;20052;-77
2021/06/11 01:18:01;;;;;;;5.40;4.68;;;;;;;15.79;93.28;101653.25;6248991;28;20049;-77
2021/06/11 01:21:03;;;;;;;8.85;4.85;;;;;;;15.77;93.42;101649.88;6248975;28;20099;-78
2021/06/11 01:24:14;;;;;;;6.80;4.30;;;;;;;15.75;93.46;101649.09;6248958;28;20045;-78
2021/06/11 01:27:17;;;;;;;7.03;4.65;;;;;;;15.72;91.80;101637.75;6248890;28;20111;-78
2021/06/11 01:30:24;;;;;;;11.43;4.70;;;;;;;15.76;91.68;101638.41;6248986;28;20100;-77
2021/06/11 01:33:29;;;;;;;11.13;5.22;;;;;;;15.72;92.46;101637.75;6248996;28;20049;-77
2021/06/11 01:36:37;;;;;;;7.28;4.70;;;;;;;15.62;93.84;101639.19;6248780;28;20053;-78
2021/06/11 01:39:40;;;;;;;6.00;4.65;;;;;;;15.56;92.93;101628.97;6248810;28;20048;-78
2021/06/11 01:42:46;;;;;;;6.25;4.60;;;;;;;15.56;93.30;101636.91;6248812;28;20091;-76
2021/06/11 01:45:47;;;;;;;7.40;5.85;;;;;;;15.61;94.17;101634.00;6247904;28;20042;-76
2021/06/11 01:48:49;;;;;;;8.95;4.80;;;;;;;15.56;93.63;101636.06;6248098;28;20595;-79
2021/06/11 01:51:53;;;;;;;5.53;4.60;;;;;;;15.53;92.81;101645.03;6248108;28;20056;-76
2021/06/11 01:54:55;;;;;;;8.02;5.07;;;;;;;15.50;94.07;101644.41;6248207;28;20103;-77
2021/06/11 01:57:59;;;;;;;5.90;4.30;;;;;;;15.45;93.76;101642.03;6247862;28;20049;-76
2021/06/11 02:01:00;;;;;;;7.03;5.07;;;;;;;15.48;93.67;101636.53;6248103;28;20056;-77
2021/06/11 02:04:04;;;;;;;8.85;4.50;;;;;;;15.50;94.49;101631.16;6247552;28;20416;-76
2021/06/11 02:07:09;;;;;;;4.78;4.05;;;;;;;15.42;94.36;101639.53;6247938;28;20088;-78
2021/06/11 02:10:12;;;;;;;5.75;4.97;;;;;;;15.40;94.18;101638.81;6247642;28;20049;-77
2021/06/11 02:13:15;;;;;;;10.00;4.68;;;;;;;15.38;94.21;101645.97;6246899;28;20053;-77
2021/06/11 02:16:18;;;;;;;6.38;4.70;;;;;;;15.32;94.46;101643.69;6247374;28;20504;-77
2021/06/11 02:19:21;;;;;;;10.77;4.63;;;;;;;15.30;94.79;101645.56;6247322;28;20046;-77
2021/06/11 02:22:23;;;;;;;8.15;5.20;;;;;;;15.25;95.28;101648.47;6247750;28;20060;-76
2021/06/11 02:25:26;;;;;;;6.60;5.00;;;;;;;15.26;95.29;101641.38;6247096;28;20049;-76
2021/06/11 02:28:29;;;;;;;5.97;4.80;;;;;;;15.22;95.17;101651.31;6247154;28;20049;-76
2021/06/11 02:31:32;;;;;;;6.78;5.75;;;;;;;15.17;95.12;101645.41;6247272;28;20064;-79
2021/06/11 02:34:33;;;;;;;9.02;4.78;;;;;;;15.13;95.48;101642.13;6247724;28;20080;-78
2021/06/11 02:37:34;;;;;;;8.70;5.20;;;;;;;15.10;95.95;101644.94;6247002;28;20046;-76
2021/06/11 02:40:35;;;;;;;6.22;4.80;;;;;;;15.07;96.00;101634.50;6247302;28;20519;-77
2021/06/11 02:43:40;;;;;;;7.97;5.13;;;;;;;15.07;96.68;101634.50;6247197;28;20049;-78
2021/06/11 02:46:47;;;;;;;7.78;5.10;;;;;;;15.03;97.13;101635.63;6246858;28;20050;-78
2021/06/11 02:49:51;;;;;;;10.18;5.18;;;;;;;14.97;97.37;101638.63;6247287;28;20087;-78
2021/06/11 02:52:56;;;;;;;5.95;4.78;;;;;;;14.97;97.24;101636.84;6247114;28;20096;-78
2021/06/11 02:56:01;;;;;;;7.13;5.40;;;;;;;14.97;97.91;101636.00;6246879;28;20050;-78
2021/06/11 02:59:07;;;;;;;11.70;5.18;;;;;;;14.91;97.97;101636.34;6247057;28;20447;-78
2021/06/11 03:02:11;;;;;;;7.00;5.47;;;;;;;14.91;97.97;101637.19;6247021;28;20053;-78
2021/06/11 03:05:16;;;;;;;6.65;5.22;;;;;;;14.90;97.55;101634.66;6246936;28;20041;-77
2021/06/11 03:08:19;;;;;;;7.38;5.15;;;;;;;14.89;97.56;101630.28;6247138;28;20046;-78
2021/06/11 03:11:28;;;;;;;7.97;5.30;;;;;;;14.84;97.68;101619.94;6246660;28;20056;-77
2021/06/11 03:14:31;;;;;;;7.87;5.43;;;;;;;14.82;98.59;101621.00;6246674;28;20452;-77
2021/06/11 03:17:40;;;;;;;11.55;6.13;;;;;;;14.81;97.97;101619.31;6246208;28;20041;-77
2021/06/11 03:20:44;;;;;;;11.00;5.75;;;;;;;14.76;98.34;101634.56;6246914;28;20571;-78
2021/06/11 03:23:49;;;;;;;9.75;5.30;;;;;;;14.73;98.35;101629.47;6247083;28;20103;-76
2021/06/11 03:26:55;;;;;;;9.40;5.65;;;;;;;14.71;98.62;101633.03;6251476;28;20147;-76
2021/06/11 03:30:05;;;;;;;8.65;5.80;;;;;;;14.74;98.87;101631.16;6251304;28;20046;-77
2021/06/11 03:33:09;;;;;;;11.52;5.80;;;;;;;14.71;98.66;101633.03;6251469;28;20049;-77
2021/06/11 03:36:14;;;;;;;7.38;5.43;;;;;;;14.70;98.32;101633.97;6251180;28;20512;-78
2021/06/11 03:39:19;;;;;;;10.98;5.60;;;;;;;14.69;98.30;101631.41;6251564;28;20049;-77
2021/06/11 03:42:22;;;;;;;16.65;6.60;;;;;;;14.69;98.44;101634.91;6251473;28;20076;-78
2021/06/11 03:45:25;;;;;;;11.05;6.22;;;;;;;14.69;97.96;101626.97;6250817;28;20045;-77
2021/06/11 03:48:29;;;;;;;9.48;6.15;;;;;;;14.69;98.04;101628.78;6250920;28;20049;-78
2021/06/11 03:51:30;;;;;;;7.95;5.63;;;;;;;14.67;97.24;101630.63;6251376;28;20049;-76
2021/06/11 03:54:32;;;;;;;8.70;5.97;;;;;;;14.67;97.57;101626.22;6250963;28;20041;-77
2021/06/11 03:57:36;;;;;;;11.38;6.57;;;;;;;14.68;98.22;101621.78;6250900;28;20132;-76
2021/06/11 04:00:42;;;;;;;10.00;5.82;;;;;;;14.66;98.67;101621.84;6250655;28;20053;-76
2021/06/11 04:03:43;;;;;;;7.90;6.40;;;;;;;14.68;98.52;101620.00;6250660;28;20064;-78
2021/06/11 04:06:50;;;;;;;8.15;6.38;;;;;;;14.63;97.99;101622.03;6250179;28;20176;-77
2021/06/11 04:09:57;;;;;;;8.77;5.65;;;;;;;14.59;97.55;101615.22;6250495;28;20473;-78
2021/06/11 04:13:06;;;;;;;10.20;6.20;;;;;;;14.62;98.05;101616.81;6250443;28;20516;-77
2021/06/11 04:16:14;;;;;;;13.98;6.68;;;;;;;14.65;99.37;101614.00;6249909;28;20464;-78
2021/06/11 04:19:18;;;;;;;8.82;6.38;;;;;;;14.69;99.79;101600.53;6250407;28;20049;-78
2021/06/11 04:22:24;;;;;;;8.90;6.80;;;;;;;14.76;100.00;101600.16;6250364;28;20053;-78
2021/06/11 04:25:28;;;;;;;14.75;7.05;;;;;;;14.79;100.00;101598.19;6249933;28;20547;-77
2021/06/11 04:28:33;;;;;;;11.05;7.10;;;;;;;14.79;99.96;101606.13;6250303;28;20041;-78
2021/06/11 04:31:35;;;;;;;8.60;6.40;;;;;;;14.83;99.99;101597.09;6250024;28;20084;-78
2021/06/11 04:34:36;;;;;;;10.95;6.35;;;;;;;14.84;100.00;101604.06;6249702;28;20048;-76
2021/06/11 04:37:38;;;;;;;8.50;6.47;;;;;;;14.95;100.00;101600.84;6248518;28;20057;-76
2021/06/11 04:40:39;;;;;;;10.88;6.20;;;;;;;14.97;100.00;101601.59;6249606;28;20773;-77
2021/06/11 04:43:40;;;;;;;10.07;6.90;;;;;;;15.00;100.00;101601.41;6249717;28;20049;-76
2021/06/11 04:46:42;;;;;;;9.65;6.72;;;;;;;15.05;99.87;101599.34;6248010;28;20434;-78
2021/06/11 04:49:43;;;;;;;10.80;7.10;;;;;;;15.08;99.11;101604.47;6249997;28;20055;-77
2021/06/11 04:52:44;;;;;;;12.70;7.40;;;;;;;15.16;98.48;101604.00;6249548;28;20053;-76
2021/06/11 04:55:45;;;;;;;8.85;7.15;;;;;;;15.21;98.21;101599.28;6249029;28;20495;-79
2021/06/11 04:58:48;;;;;;;9.30;6.63;;;;;;;15.26;98.54;101601.66;6249806;28;20052;-78
2021/06/11 05:01:50;;;;;;;13.98;7.57;;;;;;;15.31;98.47;101603.13;6249368;28;20053;-78
2021/06/11 05:04:51;;;;;;;11.90;7.25;;;;;;;15.38;98.12;101603.59;6249457;28;20049;-78
2021/06/11 05:07:52;;;;;;;9.75;7.00;;;;;;;15.45;97.58;101603.13;6248871;28;20056;-79
2021/06/11 05:10:54;;;;;;;10.68;6.63;;;;;;;15.51;97.69;101606.34;6249260;28;20138;-77
2021/06/11 05:13:55;;;;;;;13.93;6.40;;;;;;;15.56;98.01;101601.63;6249352;28;20069;-79
2021/06/11 05:16:57;;;;;;;8.10;6.03;;;;;;;15.62;98.03;101596.78;6248619;28;20080;-76
2021/06/11 05:19:58;;;;;;;36.45;26.58;;;;;;;15.68;98.07;101590.31;6249303;28;20053;-77
2021/06/11 05:22:59;;;;;;;14.38;9.77;;;;;;;15.78;97.88;101591.47;6249131;28;20422;-78
2021/06/11 05:26:00;;;;;;;12.32;7.82;;;;;;;15.86;97.35;101591.00;6248875;28;20052;-77
2021/06/11 05:29:01;;;;;;;10.32;7.57;;;;;;;15.94;98.13;101591.34;6248809;28;20049;-77
2021/06/11 05:32:04;;;;;;;11.90;8.20;;;;;;;16.03;97.38;101589.91;6248153;28;20050;-78
2021/06/11 05:35:06;;;;;;;10.93;7.70;;;;;;;16.11;98.14;101588.50;6248957;28;20056;-77
2021/06/11 05:38:08;;;;;;;13.02;7.32;;;;;;;16.20;98.54;101581.75;6224013;28;20497;-78
2021/06/11 05:41:08;;;;;;;9.93;7.40;;;;;;;16.30;98.37;101585.53;6246475;28;20052;-78
2021/06/11 05:44:09;;;;;;;46.78;23.80;;;;;;;16.38;98.29;101579.72;6248653;28;20050;-77
2021/06/11 05:47:12;;;;;;;44.70;27.05;;;;;;;16.44;98.54;101577.56;6248202;28;20049;-78
2021/06/11 05:50:13;;;;;;;21.52;10.75;;;;;;;16.51;98.08;101582.44;6248225;28;20049;-78
2021/06/11 05:53:13;;;;;;;16.40;8.90;;;;;;;16.58;97.79;101584.63;6248134;28;20045;-79
2021/06/11 05:56:14;;;;;;;20.90;7.88;;;;;;;16.67;97.04;101577.84;6248433;28;20393;-79
2021/06/11 05:59:15;;;;;;;16.80;6.85;;;;;;;16.71;97.28;101581.97;6248115;28;20045;-75
2021/06/11 06:02:17;;;;;;;11.93;6.45;;;;;;;16.78;97.13;101579.81;6247791;28;20042;-75
2021/06/11 06:05:19;;;;;;;11.05;7.57;;;;;;;16.84;96.92;101582.06;6247538;28;20516;-78
2021/06/11 06:08:20;;;;;;;16.50;7.55;;;;;;;16.94;94.31;101577.84;6247414;28;20111;-78
2021/06/11 06:11:21;;;;;;;13.52;6.57;;;;;;;17.02;94.02;101582.66;6248141;28;20128;-79
2021/06/11 06:14:21;;;;;;;15.73;7.63;;;;;;;17.09;93.99;101581.28;6247927;28;20655;-77
2021/06/11 06:17:24;;;;;;;11.07;7.13;;;;;;;17.16;93.24;101578.09;6247343;28;20088;-76
2021/06/11 06:20:25;;;;;;;15.23;7.07;;;;;;;17.29;90.93;101575.47;6247739;28;20057;-78
2021/06/11 06:23:25;;;;;;;12.48;7.00;;;;;;;17.43;88.43;101583.34;6248087;28;20131;-76
2021/06/11 06:26:27;;;;;;;16.88;7.38;;;;;;;17.58;87.50;101583.25;6247453;28;20050;-76
2021/06/11 06:29:28;;;;;;;10.70;6.38;;;;;;;17.62;87.67;101580.28;6247557;28;20049;-76
2021/06/11 06:32:30;;;;;;;14.38;7.65;;;;;;;17.70;85.07;101580.56;6247437;28;20075;-77
2021/06/11 06:35:31;;;;;;;15.30;7.82;;;;;;;17.84;83.86;101578.78;6247215;28;20075;-77
2021/06/11 06:38:32;;;;;;;13.15;7.53;;;;;;;17.86;85.92;101580.38;6247566;28;20504;-77
2021/06/11 06:41:34;;;;;;;14.25;6.78;;;;;;;17.86;85.81;101577.72;6247412;28;20072;-77
2021/06/11 06:44:36;;;;;;;14.00;7.15;;;;;;;17.96;85.85;101580.59;6247191;28;20045;-76
2021/06/11 06:47:40;;;;;;;12.93;7.38;;;;;;;17.96;87.73;101581.44;6246872;28;20053;-76
2021/06/11 06:50:41;;;;;;;16.67;6.70;;;;;;;18.03;88.43;101565.88;6247455;28;20522;-76
2021/06/11 06:53:42;;;;;;;19.08;6.53;;;;;;;18.07;87.40;101567.34;6247041;28;20056;-75
2021/06/11 06:56:43;;;;;;;12.23;6.68;;;;;;;18.14;86.43;101565.97;6246669;28;20417;-76
2021/06/11 06:59:44;;;;;;;10.10;5.63;;;;;;;18.23;86.99;101564.44;6249244;28;20049;-76
2021/06/11 07:02:46;;;;;;;11.77;6.20;;;;;;;18.34;86.48;101569.81;6252547;28;20060;-76
2021/06/11 07:05:47;;;;;;;12.38;6.18;;;;;;;18.38;84.98;101562.47;6252548;28;20060;-76
2021/06/11 07:08:48;;;;;;;9.40;5.10;;;;;;;18.43;85.28;101561.16;6251993;28;20129;-76
2021/06/11 07:11:49;;;;;;;7.32;5.22;;;;;;;18.52;84.97;101554.31;6251913;28;20142;-77
2021/06/11 07:14:50;;;;;;;8.95;5.28;;;;;;;18.53;84.50;101558.72;6251682;28;20069;-78
2021/06/11 07:17:55;;;;;;;9.07;5.32;;;;;;;18.55;83.97;101556.78;6251260;28;20059;-76
2021/06/11 07:20:56;;;;;;;9.55;3.95;;;;;;;18.67;79.14;101550.53;6251599;28;20049;-75
2021/06/11 07:23:57;;;;;;;5.75;4.03;;;;;;;18.84;76.01;101557.28;6250947;28;20052;-76
2021/06/11 07:26:58;;;;;;;9.80;3.70;;;;;;;19.07;75.53;101566.19;6250752;28;20064;-77
2021/06/11 07:29:59;;;;;;;6.03;3.70;;;;;;;19.11;76.78;101565.00;6251244;28;20107;-76
2021/06/11 07:33:03;;;;;;;5.47;3.65;;;;;;;19.15;76.37;101571.78;6251408;28;20069;-77
2021/06/11 07:36:04;;;;;;;6.85;3.92;;;;;;;19.59;72.62;101566.69;6251310;28;20041;-76
2021/06/11 07:39:05;;;;;;;9.95;5.38;;;;;;;19.96;67.06;101567.31;6251222;28;20054;-77
2021/06/11 07:42:06;;;;;;;7.30;4.60;;;;;;;19.82;71.27;101575.56;6251015;28;20107;-76
2021/06/11 07:45:09;;;;;;;11.98;5.32;;;;;;;19.81;72.99;101571.22;6250772;28;20041;-76
2021/06/11 07:48:11;;;;;;;12.20;6.05;;;;;;;19.83;73.17;101577.25;6250060;28;20045;-76
2021/06/11 07:51:12;;;;;;;11.52;6.50;;;;;;;20.07;70.22;101575.28;6250070;28;20046;-77
2021/06/11 07:54:13;;;;;;;12.55;6.10;;;;;;;20.02;69.98;101577.47;6250841;28;20054;-75
2021/06/11 07:57:14;;;;;;;10.20;6.70;;;;;;;20.04;72.23;101582.72;6250567;28;20056;-76
2021/06/11 08:00:16;;;;;;;9.18;7.28;;;;;;;20.26;69.67;101575.53;6250707;28;20056;-76
2021/06/11 08:03:18;;;;;;;8.60;6.18;;;;;;;20.25;70.52;101583.63;6250750;28;20054;-75
2021/06/11 08:06:20;;;;;;;17.65;7.75;;;;;;;20.20;68.33;101583.16;6250167;28;20057;-76
2021/06/11 08:09:20;;;;;;;10.48;6.13;;;;;;;20.16;70.63;101587.03;6250097;28;20394;-75
2021/06/11 08:12:21;;;;;;;10.02;6.18;;;;;;;20.22;69.68;101584.75;6248720;28;20056;-75
2021/06/11 08:15:22;;;;;;;14.95;6.72;;;;;;;20.30;70.03;101584.09;6250217;28;20492;-76
2021/06/11 08:18:25;;;;;;;10.82;6.70;;;;;;;20.23;70.51;101583.78;6249451;28;20519;-74
2021/06/11 08:21:26;;;;;;;12.23;7.57;;;;;;;20.25;72.76;101581.81;6249794;28;20501;-76
2021/06/11 08:24:27;;;;;;;11.00;7.35;;;;;;;20.28;73.72;101586.91;6249971;28;20054;-76
2021/06/11 08:27:27;;;;;;;11.80;7.65;;;;;;;20.19;74.81;101589.47;6249843;28;20053;-76
2021/06/11 08:30:29;;;;;;;10.73;6.82;;;;;;;20.28;72.88;101589.59;6248319;28;20416;-76
2021/06/11 08:33:32;;;;;;;13.00;7.10;;;;;;;20.51;75.17;101579.72;6248351;28;20049;-76
2021/06/11 08:36:33;;;;;;;9.55;5.97;;;;;;;20.50;71.48;101586.06;6247550;28;20050;-74
2021/06/11 08:39:34;;;;;;;18.10;6.32;;;;;;;20.71;69.45;101585.25;6248488;28;20057;-74
2021/06/11 08:42:36;;;;;;;8.52;5.15;;;;;;;20.83;71.04;101580.72;6249486;28;20060;-75
2021/06/11 08:45:37;;;;;;;8.25;4.57;;;;;;;20.93;70.68;101586.97;6249402;28;20050;-76
2021/06/11 08:48:41;;;;;;;7.10;4.68;;;;;;;21.11;64.95;101584.59;6248612;28;20045;-75
2021/06/11 08:51:44;;;;;;;6.38;4.70;;;;;;;20.97;65.02;101586.59;6249301;28;20111;-74
2021/06/11 08:54:45;;;;;;;6.88;5.35;;;;;;;20.95;65.78;101582.38;6249104;28;20195;-76
2021/06/11 08:57:46;;;;;;;10.68;4.72;;;;;;;21.05;66.48;101593.13;6247760;28;20079;-73
2021/06/11 09:00:47;;;;;;;9.02;5.10;;;;;;;21.44;64.80;101587.09;6248447;28;20057;-76
2021/06/11 09:03:52;;;;;;;11.25;5.07;;;;;;;21.54;62.30;101589.84;6249274;28;20049;-75
2021/06/11 09:07:23;;;;;;;10.30;4.90;;;;;;;21.50;62.86;101583.91;6224207;28;20050;-76
2021/06/11 09:10:24;;;;;;;8.57;4.35;;;;;;;21.66;59.31;101588.75;6224174;28;20421;-76
2021/06/11 09:13:27;;;;;;;12.38;4.30;;;;;;;21.99;60.59;101592.16;6224095;28;20056;-76
2021/06/11 09:16:29;;;;;;;6.28;3.55;;;;;;;22.13;60.00;101599.00;6223838;28;20046;-77
2021/06/11 09:19:30;;;;;;;10.45;4.38;;;;;;;22.03;59.26;101583.72;6224310;28;20050;-76
2021/06/11 09:22:45;;;;;;;11.13;4.40;;;;;;;22.27;58.09;101585.22;6223505;28;20457;-77
2021/06/11 09:25:48;;;;;;;14.77;4.90;;;;;;;22.51;54.80;101600.91;6223598;28;20057;-77
2021/06/11 09:28:49;;;;;;;11.75;4.35;;;;;;;22.51;57.16;101592.88;6224107;28;20069;-75
2021/06/11 09:31:50;;;;;;;8.18;5.30;;;;;;;22.60;55.28;101593.88;6224347;28;20497;-74
2021/06/11 09:34:53;;;;;;;9.98;5.70;;;;;;;22.52;55.49;101595.41;6223559;28;20049;-76
2021/06/11 09:38:08;;;;;;;12.15;5.15;;;;;;;22.70;56.82;101600.94;6240030;28;20049;-73
2021/06/11 09:41:11;;;;;;;9.88;6.07;;;;;;;22.52;55.96;101584.69;6237626;28;20099;-74
2021/06/11 09:44:25;;;;;;;11.95;5.63;;;;;;;22.58;56.71;101586.00;6247724;28;20045;-74
2021/06/11 09:47:33;;;;;;;9.65;4.95;;;;;;;22.67;56.24;101595.03;6245728;28;20144;-75
2021/06/11 09:50:37;;;;;;;11.43;5.57;;;;;;;22.85;55.16;101585.31;6247586;28;20057;-75
2021/06/11 09:53:40;;;;;;;11.60;5.68;;;;;;;22.89;56.23;101588.53;6247594;28;20180;-74
2021/06/11 09:56:43;;;;;;;10.20;5.68;;;;;;;22.86;56.92;101583.47;6247084;28;20052;-78
2021/06/11 09:59:44;;;;;;;9.45;5.55;;;;;;;22.81;56.47;101586.56;6247903;28;20095;-74
2021/06/11 10:02:45;;;;;;;12.35;5.38;;;;;;;22.82;56.08;101590.09;6245920;28;20118;-73
2021/06/11 10:05:47;;;;;;;6.65;3.97;;;;;;;22.95;58.45;101580.81;6245549;28;20072;-73
2021/06/11 10:08:51;;;;;;;9.25;6.10;;;;;;;22.81;57.49;101578.53;6246142;28;20049;-72
2021/06/11 10:11:52;;;;;;;10.80;5.88;;;;;;;22.89;58.04;101583.16;6247281;28;20053;-72
2021/06/11 10:14:56;;;;;;;10.93;6.28;;;;;;;23.00;57.50;101572.34;6247293;28;20103;-72
2021/06/11 10:17:57;;;;;;;14.55;6.47;;;;;;;23.08;56.31;101580.53;6246669;28;20053;-71
2021/06/11 10:21:00;;;;;;;11.95;6.03;;;;;;;23.22;56.32;101582.75;6247757;28;20389;-76
2021/06/11 10:24:05;;;;;;;9.10;5.18;;;;;;;22.95;58.28;101579.97;6248690;28;20053;-76
2021/06/11 10:27:07;;;;;;;12.95;6.03;;;;;;;23.00;59.26;101569.66;6249207;28;20103;-77
2021/06/11 10:30:09;;;;;;;8.07;4.13;;;;;;;23.14;61.06;101579.94;6249378;28;20504;-77
2021/06/11 10:33:10;;;;;;;8.27;5.00;;;;;;;23.19;58.96;101572.31;6246608;28;20057;-76
2021/06/11 10:36:33;;;;;;;5.72;3.97;;;;;;;23.36;57.00;101581.44;6246741;28;20052;-76
2021/06/11 10:39:35;;;;;;;7.18;4.72;;;;;;;23.19;56.88;101569.63;6247174;28;20045;-75
2021/06/11 10:42:36;;;;;;;6.00;4.30;;;;;;;23.17;58.29;101570.78;6246843;28;20091;-74
2021/06/11 10:45:42;;;;;;;10.52;4.93;;;;;;;23.35;58.97;101569.03;6246578;28;20045;-75
2021/06/11 10:49:07;;;;;;;9.20;5.45;;;;;;;23.55;59.99;101565.28;6246831;28;20089;-76
2021/06/11 10:52:28;;;;;;;7.70;5.57;;;;;;;23.70;58.68;101573.75;6227281;28;20419;-74
2021/06/11 10:55:46;;;;;;;7.20;3.53;;;;;;;23.78;58.28;101565.81;6247278;28;20266;-75
2021/06/11 10:58:47;;;;;;;5.18;2.90;;;;;;;23.99;55.26;101567.41;6246667;28;20136;-76
2021/06/11 11:01:51;;;;;;;8.32;3.35;;;;;;;23.94;54.89;101562.50;6246676;28;20053;-75
2021/06/11 11:04:52;;;;;;;6.57;3.15;;;;;;;24.10;55.63;101559.16;6246887;28;20524;-76
2021/06/11 11:07:53;;;;;;;4.40;2.97;;;;;;;24.03;56.18;101550.84;6246066;28;20049;-73
2021/06/11 11:10:56;;;;;;;5.50;2.58;;;;;;;24.21;55.72;101550.91;6246808;28;20061;-75
2021/06/11 11:13:59;;;;;;;5.05;2.47;;;;;;;24.19;56.13;101546.66;6246431;28;20128;-73
2021/06/11 11:17:00;;;;;;;9.05;3.15;;;;;;;24.35;54.43;101543.31;6245885;28;20067;-78
2021/06/11 11:20:04;;;;;;;6.28;3.05;;;;;;;24.48;56.36;101549.16;6246608;28;20045;-77
2021/06/11 11:23:07;;;;;;;3.40;2.33;;;;;;;24.61;57.49;101538.03;6246258;28;20416;-76
2021/06/11 11:26:09;;;;;;;9.65;3.03;;;;;;;24.93;56.00;101542.84;6246935;28;20503;-80
2021/06/11 11:29:12;;;;;;;13.15;2.72;;;;;;;24.79;54.10;101546.94;6247114;28;20054;-79
2021/06/11 11:32:13;;;;;;;4.63;2.50;;;;;;;25.01;56.26;101549.13;6245734;28;20049;-77
2021/06/11 11:35:16;;;;;;;6.65;3.95;;;;;;;25.13;53.15;101540.88;6247073;28;20459;-77
2021/06/11 11:38:17;;;;;;;4.97;2.90;;;;;;;24.87;56.15;101547.00;6245689;28;20483;-78
2021/06/11 11:41:21;;;;;;;3.65;2.10;;;;;;;24.37;55.92;101535.97;6246554;28;20105;-77
2021/06/11 11:44:23;;;;;;;3.90;1.75;;;;;;;24.17;56.46;101554.88;6246366;28;20531;-77
2021/06/11 11:47:24;;;;;;;4.60;2.00;;;;;;;24.97;52.68;101541.53;6250509;28;20046;-76
2021/06/11 11:50:27;;;;;;;3.65;1.80;;;;;;;25.59;50.75;101541.47;6251982;28;20111;-79
2021/06/11 11:53:28;;;;;;;3.03;1.88;;;;;;;25.75;52.41;101537.00;6253041;28;20096;-78
2021/06/11 11:56:30;;;;;;;3.25;1.60;;;;;;;26.26;48.04;101535.19;6252341;28;20497;-80
2021/06/11 11:59:31;;;;;;;4.10;2.13;;;;;;;26.25;49.28;101524.56;6251698;28;20050;-78
2021/06/11 12:02:32;;;;;;;6.25;2.15;;;;;;;26.26;49.26;101521.72;6250579;28;20060;-77
2021/06/11 12:05:33;;;;;;;2.50;1.60;;;;;;;26.52;49.48;101526.16;6250415;28;20095;-75
2021/06/11 12:08:34;;;;;;;5.10;1.85;;;;;;;26.88;49.47;101529.34;6250566;28;20069;-74
2021/06/11 12:11:36;;;;;;;4.00;2.17;;;;;;;26.90;49.91;101532.75;6253077;28;20055;-77
2021/06/11 12:14:37;;;;;;;3.53;2.05;;;;;;;26.59;50.61;101516.38;6253969;28;20052;-80
2021/06/11 12:17:38;;;;;;;3.90;2.22;;;;;;;26.09;49.48;101514.59;6255590;28;20045;-82
2021/06/11 12:20:39;;;;;;;2.85;2.08;;;;;;;25.40;50.38;101519.16;6254103;28;20056;-79
2021/06/11 12:23:40;;;;;;;3.35;1.70;;;;;;;25.41;53.70;101512.78;6254409;28;20734;-80
2021/06/11 12:26:42;;;;;;;3.55;1.95;;;;;;;26.43;50.12;101522.59;6252170;28;20046;-79
2021/06/11 12:29:43;;;;;;;6.45;2.17;;;;;;;26.74;48.51;101512.00;6260614;28;20053;-82
2021/06/11 12:32:44;;;;;;;3.50;2.20;;;;;;;26.18;49.08;101510.91;6256941;28;20056;-79
2021/06/11 12:35:47;;;;;;;7.55;2.17;;;;;;;25.97;48.93;101515.91;6256311;28;20497;-80
2021/06/11 12:38:48;;;;;;;5.65;2.47;;;;;;;25.31;51.48;101522.81;6255580;28;20643;-76
2021/06/11 12:41:54;;;;;;;6.25;2.28;;;;;;;25.90;51.39;101520.28;6251712;28;20049;-81
2021/06/11 12:44:56;;;;;;;4.43;2.35;;;;;;;26.45;49.77;101504.41;6252974;28;20110;-80
2021/06/11 12:47:58;;;;;;;5.18;2.00;;;;;;;27.02;48.97;101507.06;6251758;28;20045;-81
2021/06/11 12:50:59;;;;;;;6.90;2.15;;;;;;;26.71;48.64;101508.81;6252277;28;20053;-78
2021/06/11 12:53:59;;;;;;;2.35;1.63;;;;;;;26.58;48.88;101501.22;6250282;28;20556;-78
2021/06/11 12:57:03;;;;;;;4.60;1.70;;;;;;;27.12;48.12;101506.09;6251175;28;20492;-79
2021/06/11 13:00:06;;;;;;;2.83;1.77;;;;;;;27.31;44.63;101503.84;6253056;28;20489;-80
2021/06/11 13:03:07;;;;;;;4.47;1.35;;;;;;;27.39;46.33;101494.91;6248891;28;20559;-76
2021/06/11 13:06:08;;;;;;;10.45;2.05;;;;;;;27.73;45.88;101497.31;6250097;28;20049;-78
2021/06/11 13:09:09;;;;;;;6.55;1.80;;;;;;;27.70;44.58;101492.22;6249602;28;20056;-76
2021/06/11 13:12:11;;;;;;;7.30;1.60;;;;;;;27.78;45.47;101494.91;6250047;28;20053;-78
2021/06/11 13:15:14;;;;;;;6.45;1.60;;;;;;;27.50;45.81;101504.47;6249434;28;20064;-79
2021/06/11 13:18:15;;;;;;;1.50;1.17;;;;;;;26.65;47.99;101499.53;6252586;28;20068;-81
2021/06/11 13:21:16;;;;;;;5.97;1.67;;;;;;;25.68;49.71;101500.13;6250396;28;20053;-79
2021/06/11 13:24:17;;;;;;;7.10;1.80;;;;;;;25.79;50.40;101492.59;6250178;28;20397;-79
2021/06/11 13:27:19;;;;;;;4.88;2.00;;;;;;;26.52;49.58;101497.31;6249987;28;20045;-78
2021/06/11 13:30:26;;;;;;;3.00;1.50;;;;;;;27.17;45.61;101493.78;6250278;28;20497;-81
2021/06/11 13:33:27;;;;;;;2.30;1.30;;;;;;;27.51;47.69;101493.50;6249656;28;20054;-79
2021/06/11 13:36:28;;;;;;;9.77;1.88;;;;;;;27.67;46.32;101497.16;6249530;28;20550;-79
2021/06/11 13:39:31;;;;;;;3.35;1.30;;;;;;;27.79;45.44;101488.50;6250846;28;20107;-80
2021/06/11 13:42:33;;;;;;;4.90;1.55;;;;;;;28.01;47.09;101488.72;6255632;28;20057;-81
2021/06/11 13:45:34;;;;;;;3.22;1.42;;;;;;;27.96;46.93;101491.13;6249943;28;20114;-79
2021/06/11 13:48:35;;;;;;;1.63;1.40;;;;;;;27.85;45.60;101492.38;6250989;28;20100;-79
2021/06/11 13:51:42;;;;;;;2.97;1.23;;;;;;;27.58;46.44;101492.81;6253274;28;20053;-81
2021/06/11 13:54:43;;;;;;;3.65;0.95;;;;;;;27.67;46.14;101494.47;6251927;28;20045;-82
2021/06/11 13:57:45;;;;;;;2.33;1.10;;;;;;;27.44;45.48;101488.97;6255115;28;20124;-76
2021/06/11 14:00:47;;;;;;;1.40;1.20;;;;;;;27.63;45.45;101485.03;6249097;28;20053;-82
2021/06/11 14:03:48;;;;;;;3.22;1.42;;;;;;;27.41;44.66;101486.63;6249263;28;20501;-80
2021/06/11 14:06:49;;;;;;;2.53;1.50;;;;;;;26.75;46.23;101478.66;6250984;28;20053;-78